XBQLO MMQT-MMQT
Flight info
| Callsign | XBQLO |
|---|---|
| Flight time | N/A |
| Altitude | 9500 |
| Route | QET |
| Aircraft | P28A/L-SD/C |
Departure
| Time | 2026-04-24 00:04 |
|---|---|
| Airport | Querétaro Intercontinental Airport (MMQT) |
Arrival
| Time | N/A |
|---|---|
| Airport | Querétaro Intercontinental Airport (MMQT) |
| Time | Latitude | Longitude | Altitude | Speed | Heading |
|---|---|---|---|---|---|
| 2026-04-23 23:57 | 20.62038 | -100.19288 | 6547 ft | 0 kts | 282° |
| 2026-04-23 23:58 | 20.62039 | -100.19290 | 6547 ft | 1 kts | 280° |
| 2026-04-23 23:58 | 20.62040 | -100.19306 | 6547 ft | 4 kts | 273° |
| 2026-04-23 23:58 | 20.62049 | -100.19363 | 6548 ft | 11 kts | 282° |
| 2026-04-23 23:58 | 20.62068 | -100.19466 | 6548 ft | 17 kts | 281° |
| 2026-04-23 23:59 | 20.62096 | -100.19610 | 6547 ft | 21 kts | 272° |
| 2026-04-23 23:59 | 20.62036 | -100.19605 | 6550 ft | 11 kts | 127° |
| 2026-04-23 23:59 | 20.61951 | -100.19504 | 6549 ft | 28 kts | 128° |
| 2026-04-23 23:59 | 20.61865 | -100.19240 | 6552 ft | 51 kts | 101° |
| 2026-04-24 00:00 | 20.61777 | -100.18771 | 6550 ft | 76 kts | 102° |
| 2026-04-24 00:00 | 20.61657 | -100.18130 | 6549 ft | 101 kts | 100° |
| 2026-04-24 00:00 | 20.61509 | -100.17358 | 6672 ft | 106 kts | 99° |
| 2026-04-24 00:00 | 20.61380 | -100.16675 | 6749 ft | 113 kts | 101° |
| 2026-04-24 00:04 | 20.61358 | -100.16556 | 6777 ft | 113 kts | 101° |
| 2026-04-24 00:04 | 20.61343 | -100.15695 | 6858 ft | 119 kts | 66° |
| 2026-04-24 00:04 | 20.61657 | -100.14959 | 7245 ft | 96 kts | 54° |
| 2026-04-24 00:04 | 20.62068 | -100.14350 | 7270 ft | 114 kts | 41° |
| 2026-04-24 00:05 | 20.62545 | -100.13729 | 7491 ft | 95 kts | 36° |
| 2026-04-24 00:05 | 20.63116 | -100.13372 | 7457 ft | 106 kts | 14° |
| 2026-04-24 00:05 | 20.63685 | -100.12875 | 7679 ft | 98 kts | 38° |
| 2026-04-24 00:05 | 20.64135 | -100.12220 | 7716 ft | 117 kts | 61° |
| 2026-04-24 00:06 | 20.64311 | -100.11397 | 7850 ft | 110 kts | 73° |
| 2026-04-24 00:06 | 20.64530 | -100.10631 | 7967 ft | 113 kts | 68° |
| 2026-04-24 00:06 | 20.64773 | -100.09838 | 8161 ft | 110 kts | 66° |
| 2026-04-24 00:06 | 20.65148 | -100.09104 | 8179 ft | 122 kts | 43° |
| 2026-04-24 00:07 | 20.65617 | -100.08336 | 8310 ft | 126 kts | 59° |
| 2026-04-24 00:07 | 20.66015 | -100.07481 | 8418 ft | 121 kts | 62° |
| 2026-04-24 00:07 | 20.66389 | -100.06766 | 8594 ft | 116 kts | 49° |
| 2026-04-24 00:07 | 20.66880 | -100.06155 | 8782 ft | 102 kts | 33° |
| 2026-04-24 00:08 | 20.67428 | -100.05560 | 8738 ft | 112 kts | 36° |
| 2026-04-24 00:08 | 20.68004 | -100.05116 | 8843 ft | 107 kts | 19° |
| 2026-04-24 00:08 | 20.68637 | -100.04697 | 8873 ft | 112 kts | 45° |
| 2026-04-24 00:08 | 20.68876 | -100.03830 | 8825 ft | 120 kts | 81° |
| 2026-04-24 00:09 | 20.68937 | -100.03009 | 8677 ft | 131 kts | 80° |
| 2026-04-24 00:09 | 20.69101 | -100.02037 | 8479 ft | 134 kts | 71° |
| 2026-04-24 00:09 | 20.69371 | -100.01130 | 8562 ft | 123 kts | 64° |
| 2026-04-24 00:09 | 20.69745 | -100.00330 | 8638 ft | 121 kts | 53° |
| 2026-04-24 00:10 | 20.70151 | -99.99503 | 8635 ft | 131 kts | 57° |
| 2026-04-24 00:10 | 20.70585 | -99.98623 | 8629 ft | 136 kts | 62° |
| 2026-04-24 00:10 | 20.70873 | -99.97662 | 8652 ft | 138 kts | 74° |
| 2026-04-24 00:10 | 20.71011 | -99.96634 | 8677 ft | 136 kts | 84° |
| 2026-04-24 00:11 | 20.71069 | -99.95604 | 8650 ft | 139 kts | 92° |
| 2026-04-24 00:11 | 20.70859 | -99.94619 | 8689 ft | 137 kts | 121° |
| 2026-04-24 00:11 | 20.70366 | -99.93777 | 8772 ft | 134 kts | 127° |
| 2026-04-24 00:11 | 20.69849 | -99.92925 | 8753 ft | 138 kts | 128° |
| 2026-04-24 00:12 | 20.69322 | -99.92063 | 8792 ft | 137 kts | 124° |
| 2026-04-24 00:12 | 20.68812 | -99.91189 | 8718 ft | 146 kts | 125° |
| 2026-04-24 00:12 | 20.68369 | -99.90305 | 8870 ft | 134 kts | 118° |
| 2026-04-24 00:12 | 20.67931 | -99.89395 | 8813 ft | 142 kts | 118° |
| 2026-04-24 00:13 | 20.67554 | -99.88375 | 8755 ft | 149 kts | 107° |
| 2026-04-24 00:13 | 20.67444 | -99.87312 | 8845 ft | 140 kts | 80° |
| 2026-04-24 00:13 | 20.67794 | -99.86352 | 8695 ft | 141 kts | 54° |
| 2026-04-24 00:13 | 20.68380 | -99.85456 | 8390 ft | 148 kts | 47° |
| 2026-04-24 00:14 | 20.69008 | -99.84632 | 8325 ft | 140 kts | 43° |
| 2026-04-24 00:14 | 20.69664 | -99.83879 | 8241 ft | 138 kts | 43° |
| 2026-04-24 00:14 | 20.70346 | -99.83133 | 7988 ft | 142 kts | 38° |
| 2026-04-24 00:14 | 20.71097 | -99.82441 | 7755 ft | 137 kts | 30° |
| 2026-04-24 00:15 | 20.71895 | -99.81966 | 7520 ft | 129 kts | 13° |
| 2026-04-24 00:15 | 20.72764 | -99.81770 | 7254 ft | 129 kts | 359° |
| 2026-04-24 00:15 | 20.73562 | -99.81392 | 7112 ft | 133 kts | 39° |
| 2026-04-24 00:15 | 20.73829 | -99.80515 | 7063 ft | 125 kts | 96° |
| 2026-04-24 00:16 | 20.73676 | -99.79656 | 6905 ft | 111 kts | 109° |
| 2026-04-24 00:16 | 20.73416 | -99.78901 | 6790 ft | 108 kts | 116° |
| 2026-04-24 00:16 | 20.73124 | -99.78187 | 6757 ft | 99 kts | 116° |
| 2026-04-24 00:16 | 20.72895 | -99.77654 | 6828 ft | 42 kts | 115° |
| 2026-04-24 00:17 | 20.72814 | -99.77494 | 6849 ft | 14 kts | 120° |
| 2026-04-24 00:17 | 20.72809 | -99.77484 | 6850 ft | 0 kts | 116° |